createdAt,value
2019-01-04T00:04:59.068Z,64.72
2019-01-04T00:13:14.536Z,64.48
2019-01-04T00:17:18.766Z,64.75
2019-01-04T00:21:23.061Z,64.88
2019-01-04T00:25:27.272Z,64.99
2019-01-04T00:29:31.549Z,65.02
2019-01-04T00:33:35.867Z,64.79
2019-01-04T00:37:40.127Z,64.87
2019-01-04T00:41:44.375Z,65.03
2019-01-04T00:45:48.654Z,64.83
2019-01-04T00:49:52.840Z,64.95
2019-01-04T00:53:57.107Z,65.25
2019-01-04T00:58:39.373Z,65.27
2019-01-04T01:03:21.721Z,64.93
2019-01-04T01:08:04.349Z,65.14
2019-01-04T01:12:47.017Z,64.94
2019-01-04T01:17:29.358Z,65.23
2019-01-04T01:22:10.110Z,65.29
2019-01-04T01:26:56.219Z,65.60
2019-01-04T01:31:38.530Z,65.53
2019-01-04T01:36:10.299Z,65.59
2019-01-04T01:40:52.608Z,65.89
2019-01-04T01:50:43.992Z,65.94
2019-01-04T01:54:48.249Z,65.93
2019-01-04T01:58:52.491Z,66.05
2019-01-04T02:02:56.839Z,66.32
2019-01-04T02:07:01.101Z,66.47
2019-01-04T02:11:05.350Z,66.92
2019-01-04T02:15:09.726Z,66.84
2019-01-04T02:19:14.013Z,66.81
2019-01-04T02:23:18.241Z,66.43
2019-01-04T02:27:22.683Z,65.99
2019-01-04T02:31:26.928Z,65.93
2019-01-04T02:35:31.213Z,65.42
2019-01-04T02:39:35.429Z,65.18
2019-01-04T02:43:39.663Z,65.22
2019-01-04T02:47:44.248Z,65.50
2019-01-04T02:51:48.540Z,65.43
2019-01-04T02:55:52.808Z,65.49
2019-01-04T02:59:57.453Z,65.50
2019-01-04T03:04:01.758Z,65.61
2019-01-04T03:08:06.051Z,65.83
2019-01-04T03:12:10.316Z,66.09
2019-01-04T03:16:14.595Z,66.37
2019-01-04T03:20:18.837Z,66.36
2019-01-04T03:24:23.095Z,66.57
2019-01-04T03:28:27.325Z,66.53
2019-01-04T03:32:31.625Z,66.37
2019-01-04T03:36:35.864Z,66.32
2019-01-04T03:40:40.105Z,66.25
2019-01-04T03:44:44.362Z,66.31
2019-01-04T03:48:48.618Z,66.28
2019-01-04T03:52:52.848Z,66.35
2019-01-04T03:56:57.111Z,66.33
2019-01-04T04:01:01.389Z,66.15
2019-01-04T04:05:05.778Z,65.90
2019-01-04T04:09:10.054Z,65.62
2019-01-04T04:13:14.318Z,65.26
2019-01-04T04:17:18.612Z,65.26
2019-01-04T04:21:22.856Z,64.87
2019-01-04T04:25:27.117Z,64.82
2019-01-04T04:29:31.429Z,64.55
2019-01-04T04:33:35.713Z,64.78
2019-01-04T04:37:39.967Z,65.11
2019-01-04T04:41:44.225Z,65.63
2019-01-04T04:45:48.477Z,66.24
2019-01-04T04:49:59.842Z,66.92
2019-01-04T04:54:04.120Z,67.20
2019-01-04T04:58:08.396Z,67.41
2019-01-04T05:02:12.641Z,67.07
2019-01-04T05:06:16.931Z,67.17
2019-01-04T05:10:21.186Z,66.66
2019-01-04T05:14:25.456Z,66.42
2019-01-04T05:18:29.754Z,66.05
2019-01-04T05:22:34.017Z,65.59
2019-01-04T05:26:38.237Z,65.52
2019-01-04T05:30:42.539Z,65.10
2019-01-04T05:34:46.769Z,65.29
2019-01-04T05:38:51.360Z,65.10
2019-01-04T05:42:55.569Z,65.08
2019-01-04T05:46:59.955Z,65.05
2019-01-04T05:51:04.161Z,65.07
2019-01-04T05:55:08.896Z,65.00
2019-01-04T05:59:13.175Z,65.01
2019-01-04T06:03:17.454Z,65.21
2019-01-04T06:07:21.749Z,65.27
2019-01-04T06:11:26.013Z,65.16
2019-01-04T06:15:30.235Z,65.30
2019-01-04T06:19:34.524Z,65.20
2019-01-04T06:23:38.767Z,65.18
2019-01-04T06:27:44.171Z,65.00
2019-01-04T06:31:49.030Z,65.25
2019-01-04T06:35:53.287Z,65.00
2019-01-04T06:39:57.619Z,64.95
2019-01-04T06:44:03.052Z,65.08
2019-01-04T06:48:07.835Z,64.89
2019-01-04T06:52:12.137Z,65.00
2019-01-04T06:56:16.425Z,65.00
2019-01-04T07:00:20.671Z,65.19
2019-01-04T07:04:24.924Z,65.16
2019-01-04T07:08:29.192Z,65.23
2019-01-04T07:13:12.838Z,65.48
2019-01-04T07:17:17.061Z,65.37
2019-01-04T07:21:21.372Z,65.76
2019-01-04T07:25:25.638Z,65.87
2019-01-04T07:29:30.172Z,65.79
2019-01-04T07:33:34.447Z,65.83
2019-01-04T07:37:38.704Z,66.08
2019-01-04T07:41:43.002Z,65.65
2019-01-04T07:45:47.278Z,65.61
2019-01-04T07:49:51.505Z,65.42
2019-01-04T07:53:55.785Z,65.36
2019-01-04T07:58:00.144Z,65.15
2019-01-04T08:02:42.479Z,65.55
2019-01-04T08:06:46.783Z,65.11
2019-01-04T08:10:51.011Z,65.42
2019-01-04T08:14:55.316Z,65.37
2019-01-04T08:18:59.568Z,65.10
2019-01-04T08:23:03.847Z,65.21
2019-01-04T08:27:08.102Z,65.47
2019-01-04T08:31:12.364Z,65.17
2019-01-04T08:35:16.611Z,65.34
2019-01-04T08:39:20.872Z,65.73
2019-01-04T08:43:25.108Z,65.04
2019-01-04T08:47:29.404Z,64.88
2019-01-04T08:51:33.725Z,65.34
2019-01-04T08:55:37.922Z,65.31
2019-01-04T08:59:42.243Z,65.22
2019-01-04T09:03:46.524Z,65.65
2019-01-04T09:07:50.802Z,65.41
2019-01-04T09:11:55.093Z,65.07
2019-01-04T09:15:59.368Z,64.87
2019-01-04T09:20:03.720Z,64.99
2019-01-04T09:24:07.980Z,64.56
2019-01-04T09:28:17.908Z,64.76
2019-01-04T09:32:18.268Z,64.58
2019-01-04T09:36:22.551Z,64.68
2019-01-04T09:40:27.060Z,64.07
2019-01-04T09:44:32.867Z,64.17
2019-01-04T09:48:37.146Z,64.35
2019-01-04T09:52:41.665Z,64.38
2019-01-04T09:56:45.954Z,63.75
2019-01-04T10:00:50.207Z,63.75
2019-01-04T10:04:54.486Z,63.76
2019-01-04T10:08:58.761Z,63.62
2019-01-04T10:13:03.042Z,63.51
2019-01-04T10:17:07.339Z,63.64
2019-01-04T10:21:11.693Z,63.52
2019-01-04T10:25:16.282Z,63.44
2019-01-04T10:29:20.607Z,63.74
2019-01-04T10:33:24.838Z,63.43
2019-01-04T10:37:29.110Z,63.62
2019-01-04T10:41:33.387Z,63.20
2019-01-04T10:45:37.630Z,63.45
2019-01-04T10:49:41.893Z,62.98
2019-01-04T10:53:46.130Z,62.24
2019-01-04T10:57:50.403Z,62.78
2019-01-04T11:01:54.684Z,62.39
2019-01-04T11:05:58.911Z,61.44
2019-01-04T11:10:03.160Z,61.65
2019-01-04T11:14:07.430Z,61.63
2019-01-04T11:18:11.753Z,61.82
2019-01-04T11:22:54.063Z,61.20
2019-01-04T11:27:03.921Z,59.66
2019-01-04T11:31:30.403Z,59.39
2019-01-04T11:36:12.731Z,59.36
2019-01-04T11:40:55.050Z,59.86
2019-01-04T11:45:21.392Z,59.82
2019-01-04T11:50:03.720Z,59.29
2019-01-04T11:54:12.784Z,59.35
2019-01-04T11:58:17.034Z,59.18
2019-01-04T12:02:26.369Z,59.39
2019-01-04T12:06:27.379Z,58.74
2019-01-04T12:10:31.647Z,58.69
2019-01-04T12:14:41.214Z,58.60
2019-01-04T12:18:41.876Z,58.66
2019-01-04T12:22:46.116Z,58.74
2019-01-04T12:26:50.379Z,59.18
2019-01-04T12:30:55.050Z,58.98
2019-01-04T12:34:59.307Z,59.00
2019-01-04T12:43:47.925Z,59.36
2019-01-04T12:47:53.166Z,59.01
2019-01-04T12:51:57.466Z,59.43
2019-01-04T12:56:01.698Z,59.64
2019-01-04T13:00:07.538Z,60.00
2019-01-04T13:04:11.753Z,59.61
2019-01-04T13:08:15.994Z,59.69
2019-01-04T13:12:20.246Z,59.88
2019-01-04T13:16:24.511Z,60.35
2019-01-04T13:20:28.745Z,60.56
2019-01-04T13:24:32.995Z,60.50
2019-01-04T13:28:37.275Z,60.69
2019-01-04T13:32:41.512Z,61.11
2019-01-04T13:36:45.808Z,61.92
2019-01-04T13:40:50.013Z,62.62
2019-01-04T13:44:54.285Z,62.89
2019-01-04T13:48:58.511Z,64.33
2019-01-04T13:53:02.781Z,64.80
2019-01-04T13:57:07.066Z,65.73
2019-01-04T14:01:11.301Z,66.99
2019-01-04T14:05:15.569Z,68.52
2019-01-04T14:09:19.828Z,67.52
2019-01-04T14:13:24.089Z,68.17
2019-01-04T14:17:28.329Z,67.95
2019-01-04T14:21:32.555Z,68.32
2019-01-04T14:25:36.825Z,68.89
2019-01-04T14:29:41.085Z,68.62
2019-01-04T14:33:45.376Z,68.74
2019-01-04T14:37:49.667Z,68.58
2019-01-04T14:41:53.920Z,69.08
2019-01-04T14:45:58.181Z,69.17
2019-01-04T14:50:02.539Z,69.51
2019-01-04T14:54:06.799Z,69.39
2019-01-04T14:58:11.055Z,69.80
2019-01-04T15:02:15.311Z,70.21
2019-01-04T15:06:19.576Z,71.54
2019-01-04T15:10:23.769Z,71.25
2019-01-04T15:14:28.035Z,71.65
2019-01-04T15:18:32.531Z,71.45
2019-01-04T15:22:36.830Z,72.27
2019-01-04T15:26:41.112Z,72.87
2019-01-04T15:30:45.365Z,72.95
2019-01-04T15:34:49.637Z,72.99
2019-01-04T15:38:53.872Z,72.88
2019-01-04T15:42:58.463Z,73.08
2019-01-04T15:47:02.732Z,73.03
2019-01-04T15:51:07.008Z,73.76
2019-01-04T15:55:11.589Z,73.64
2019-01-04T15:59:15.815Z,73.62
2019-01-04T16:03:20.102Z,73.62
2019-01-04T16:07:24.369Z,73.82
2019-01-04T16:11:29.005Z,73.84
2019-01-04T16:15:33.234Z,73.38
2019-01-04T16:19:37.525Z,73.84
2019-01-04T16:23:41.759Z,74.25
2019-01-04T16:27:46.012Z,74.37
2019-01-04T16:31:50.239Z,74.20
2019-01-04T16:35:54.521Z,74.26
2019-01-04T16:39:59.108Z,74.40
2019-01-04T16:44:07.253Z,74.81
2019-01-04T16:48:09.348Z,75.15
2019-01-04T16:52:13.578Z,75.48
2019-01-04T16:56:17.815Z,75.30
2019-01-04T17:00:22.062Z,75.57
2019-01-04T17:04:26.358Z,75.98
2019-01-04T17:08:30.582Z,76.05
2019-01-04T17:12:34.860Z,76.10
2019-01-04T17:16:39.149Z,76.16
2019-01-04T17:20:43.427Z,76.14
2019-01-04T17:24:48.050Z,76.32
2019-01-04T17:28:52.240Z,75.92
2019-01-04T17:32:56.557Z,76.33
2019-01-04T17:37:00.835Z,76.04
2019-01-04T17:41:05.110Z,76.00
2019-01-04T17:45:09.590Z,76.26
2019-01-04T17:49:13.819Z,76.00
2019-01-04T17:53:18.226Z,76.28
2019-01-04T17:57:22.987Z,76.28
2019-01-04T18:01:27.458Z,75.89
2019-01-04T18:05:31.948Z,76.04
2019-01-04T18:09:36.304Z,76.11
2019-01-04T18:13:40.758Z,76.20
2019-01-04T18:17:44.992Z,76.06
2019-01-04T18:21:49.256Z,76.19
2019-01-04T18:25:53.515Z,76.20
2019-01-04T18:29:57.847Z,76.23
2019-01-04T18:34:02.135Z,76.71
2019-01-04T18:38:06.446Z,76.35
2019-01-04T18:42:10.712Z,76.66
2019-01-04T18:46:14.972Z,76.41
2019-01-04T18:50:22.244Z,76.68
2019-01-04T18:54:26.459Z,76.78
2019-01-04T18:58:30.740Z,76.74
2019-01-04T19:02:34.969Z,77.14
2019-01-04T19:06:39.251Z,76.86
2019-01-04T19:10:43.520Z,76.93
2019-01-04T19:14:47.776Z,77.05
2019-01-04T19:19:10.967Z,77.09
2019-01-04T19:23:15.247Z,77.02
2019-01-04T19:27:19.455Z,77.20
2019-01-04T19:35:54.397Z,77.13
2019-01-04T19:39:58.676Z,76.92
2019-01-04T19:44:02.951Z,76.96
2019-01-04T19:48:07.136Z,76.66
2019-01-04T19:52:11.416Z,76.64
2019-01-04T19:56:15.711Z,76.60
2019-01-04T20:00:19.934Z,76.52
2019-01-04T20:04:24.216Z,76.46
2019-01-04T20:14:31.037Z,76.81
2019-01-04T20:23:36.490Z,77.20
2019-01-04T20:27:49.233Z,77.53
2019-01-04T20:32:09.099Z,77.65
2019-01-04T20:36:32.235Z,77.67
2019-01-04T20:40:57.935Z,78.06
2019-01-04T20:45:21.149Z,78.13
2019-01-04T20:49:44.394Z,78.31
2019-01-04T20:54:07.596Z,78.61
2019-01-04T20:58:30.765Z,78.41
2019-01-04T21:02:54.368Z,78.85
2019-01-04T21:07:08.549Z,79.03
2019-01-04T21:11:31.746Z,79.14
2019-01-04T21:15:54.920Z,79.10
2019-01-04T21:20:18.136Z,79.17
2019-01-04T21:24:41.326Z,79.15
2019-01-04T21:29:04.493Z,79.33
2019-01-04T21:33:27.698Z,79.14
2019-01-04T21:37:50.894Z,79.35
2019-01-04T21:42:14.081Z,79.36
2019-01-04T21:46:37.406Z,79.19
2019-01-04T21:51:00.980Z,79.10
2019-01-04T21:55:24.201Z,79.08
2019-01-04T21:59:47.379Z,79.13
2019-01-04T22:04:10.601Z,79.19
2019-01-04T22:08:33.783Z,79.12
2019-01-04T22:12:56.962Z,78.94
2019-01-04T22:17:21.971Z,79.09
2019-01-04T22:21:45.177Z,79.21
2019-01-04T22:30:33.649Z,79.19
2019-01-04T22:34:51.669Z,79.46
2019-01-04T22:39:14.938Z,79.22
2019-01-04T22:43:38.134Z,79.26
2019-01-04T22:48:01.308Z,79.14
2019-01-04T22:52:24.527Z,78.99
2019-01-04T22:56:47.733Z,79.16
2019-01-04T23:01:30.559Z,78.78
2019-01-04T23:14:49.866Z,78.33
2019-01-04T23:19:13.042Z,77.96
2019-01-04T23:23:36.215Z,77.79
2019-01-04T23:27:59.407Z,77.40
2019-01-04T23:32:16.198Z,77.30
2019-01-04T23:36:40.559Z,77.00
2019-01-04T23:45:29.071Z,76.88
2019-01-04T23:49:52.298Z,76.73
2019-01-04T23:54:15.522Z,76.45
2019-01-04T23:58:38.678Z,76.31
